Portada
METAR-TAF:

METAR-TAF

Aeroports :

Cayman Brac, Illes Caiman

latitud: 19-41-13N, longitud: 079-52-58W, altitud: 2 m

Observació

L'informe es va fer fa 46 minuts, a les 14:00 UTC
Vent 9 kt del Est/Sud-Est
Temperatura 28°C
Humitat 79%
Pressió 1016 hPa
Visibilitat 10 km o més
Escasses núvols a una alçada de 1800 ft

METAR: MWCB 051400Z 11009KT 9999 FEW018 28/24 Q1016

Hora: 09:46 (14:46 UTC)

Pronòstic

L'informe es va fer fa 3 hores i 46 minuts, a les 11:00 UTC
Pronòstic vàlid del 05 a les 12 UTC al 06 a les 12 UTC
Vent 12 kt del Est
Visibilitat 10 km o més
Escasses núvols a una alçada de 1800 ft
Cel ennuvolat a una alçada de 3500 ft
xàfecs en les proximitats

TAF: MWCB 051100Z 0512/0612 08012KT 9999 VCSH FEW018 BKN035

Observacions i pronòstics meteorològics de més de 4000 aeroports (METAR i TAF).

Les estacions disponibles són els punts grocs i vermells al mapa.

Posi el ratolí al punt desitjat per veure el nom de l'estació.

Feu clic per veure les observacions i els pronòstics meteorològics.

Per canviar el mapa: feu clic els botons verds amb una creu de color negre per apropar; al botó verd amb un guió per allunyar la imatge; o en les fletxes verdes per a mapes adjacents.


METAR-TAF: